createdAt,value
2023-05-20T00:00:44.320Z,0.00
2023-05-20T00:01:44.318Z,0.00
2023-05-20T00:02:44.340Z,0.00
2023-05-20T00:03:44.385Z,0.00
2023-05-20T00:04:44.317Z,0.00
2023-05-20T00:05:44.296Z,0.00
2023-05-20T00:06:44.287Z,0.00
2023-05-20T00:07:44.276Z,0.00
2023-05-20T00:08:44.272Z,0.00
2023-05-20T00:09:44.268Z,0.00
2023-05-20T00:10:44.264Z,0.00
2023-05-20T00:11:44.257Z,0.00
2023-05-20T00:12:44.252Z,0.00
2023-05-20T00:13:44.259Z,0.00
2023-05-20T00:14:44.242Z,0.00
2023-05-20T00:15:44.236Z,0.00
2023-05-20T00:16:44.321Z,0.00
2023-05-20T00:17:44.262Z,0.00
2023-05-20T00:18:44.228Z,0.00
2023-05-20T00:19:44.230Z,0.00
2023-05-20T00:20:44.201Z,0.00
2023-05-20T00:21:44.198Z,0.00
2023-05-20T00:22:44.198Z,0.00
2023-05-20T00:23:44.192Z,0.00
2023-05-20T00:24:44.182Z,0.00
2023-05-20T00:25:44.189Z,0.00
2023-05-20T00:26:44.178Z,0.00
2023-05-20T00:27:44.173Z,0.00
2023-05-20T00:28:44.166Z,0.00
2023-05-20T00:29:44.151Z,0.00
2023-05-20T00:30:44.155Z,0.00
2023-05-20T00:31:44.190Z,0.00
2023-05-20T00:32:44.180Z,0.00
2023-05-20T00:33:44.132Z,0.00
2023-05-20T00:34:44.131Z,0.00
2023-05-20T00:35:44.125Z,0.00
2023-05-20T00:36:44.116Z,0.00
2023-05-20T00:37:44.113Z,0.00
2023-05-20T00:38:44.101Z,0.00
2023-05-20T00:39:44.099Z,0.00
2023-05-20T00:40:44.097Z,0.00
2023-05-20T00:41:44.090Z,0.00
2023-05-20T00:42:44.078Z,0.00
2023-05-20T00:43:44.076Z,0.00
2023-05-20T00:44:44.067Z,0.00
2023-05-20T00:45:44.071Z,0.00
2023-05-20T00:46:44.065Z,0.00
2023-05-20T00:47:44.115Z,0.00
2023-05-20T00:48:44.061Z,0.00
2023-05-20T00:49:44.049Z,0.00
2023-05-20T00:50:44.040Z,0.00
2023-05-20T00:51:44.039Z,0.00
2023-05-20T00:52:44.032Z,0.00
2023-05-20T00:53:44.019Z,0.00
2023-05-20T00:54:44.010Z,0.00
2023-05-20T00:55:44.014Z,0.00
2023-05-20T00:56:44.006Z,0.00
2023-05-20T00:57:43.999Z,0.00
2023-05-20T00:58:44.000Z,0.00
2023-05-20T00:59:44.932Z,0.00
2023-05-20T01:00:43.991Z,0.00
2023-05-20T01:01:44.032Z,0.00
2023-05-20T01:02:44.087Z,0.00
2023-05-20T01:03:44.000Z,0.00
2023-05-20T01:04:43.957Z,0.00
2023-05-20T01:05:43.952Z,0.00
2023-05-20T01:06:43.952Z,0.00
2023-05-20T01:07:43.943Z,0.00
2023-05-20T01:08:43.943Z,0.00
2023-05-20T01:09:43.923Z,0.00
2023-05-20T01:10:43.911Z,0.00
2023-05-20T01:11:43.914Z,0.00
2023-05-20T01:12:43.916Z,0.00
2023-05-20T01:13:43.914Z,0.00
2023-05-20T01:14:43.906Z,0.00
2023-05-20T01:15:43.918Z,0.00
2023-05-20T01:16:43.894Z,0.00
2023-05-20T01:17:43.916Z,0.00
2023-05-20T01:18:43.963Z,0.00
2023-05-20T01:19:43.869Z,0.00
2023-05-20T01:20:43.876Z,0.00
2023-05-20T01:21:43.871Z,0.00
2023-05-20T01:22:43.850Z,0.00
2023-05-20T01:23:43.836Z,0.00
2023-05-20T01:24:43.851Z,0.00
2023-05-20T01:25:43.826Z,0.00
2023-05-20T01:26:43.822Z,0.00
2023-05-20T01:27:43.828Z,0.00
2023-05-20T01:28:43.936Z,0.00
2023-05-20T01:29:43.818Z,0.00
2023-05-20T01:30:44.601Z,0.00
2023-05-20T01:31:43.811Z,0.00
2023-05-20T01:32:43.799Z,0.00
2023-05-20T01:33:43.792Z,0.00
2023-05-20T01:34:43.779Z,0.00
2023-05-20T01:35:43.780Z,0.00
2023-05-20T01:36:43.769Z,0.00
2023-05-20T01:37:43.767Z,0.00
2023-05-20T01:38:43.755Z,0.00
2023-05-20T01:39:43.767Z,0.00
2023-05-20T01:40:43.759Z,0.00
2023-05-20T01:41:43.737Z,0.00
2023-05-20T01:42:43.730Z,0.00
2023-05-20T01:43:43.719Z,0.00
2023-05-20T01:44:43.730Z,0.00
2023-05-20T01:45:43.719Z,0.00
2023-05-20T01:46:43.725Z,0.00
2023-05-20T01:47:43.728Z,0.00
2023-05-20T01:48:43.703Z,0.00
2023-05-20T01:49:43.692Z,0.00
2023-05-20T01:50:43.681Z,0.00
2023-05-20T01:51:43.673Z,0.00
2023-05-20T01:52:43.667Z,0.00
2023-05-20T01:53:43.667Z,0.00
2023-05-20T01:54:43.673Z,0.00
2023-05-20T01:55:43.661Z,0.00
2023-05-20T01:56:43.650Z,0.00
2023-05-20T01:57:43.641Z,0.00
2023-05-20T01:58:43.647Z,0.00
2023-05-20T01:59:43.628Z,0.00
2023-05-20T02:00:43.670Z,0.00
2023-05-20T02:01:43.671Z,0.00
2023-05-20T02:02:43.681Z,0.00
2023-05-20T02:03:43.606Z,0.00
2023-05-20T02:04:43.598Z,0.00
2023-05-20T02:05:43.630Z,0.00
2023-05-20T02:06:43.586Z,0.00
2023-05-20T02:07:43.580Z,0.00
2023-05-20T02:08:43.583Z,0.00
2023-05-20T02:09:43.568Z,0.00
2023-05-20T02:10:43.556Z,0.00
2023-05-20T02:11:43.557Z,0.00
2023-05-20T02:12:43.546Z,0.00
2023-05-20T02:13:43.559Z,0.00
2023-05-20T02:14:43.540Z,0.00
2023-05-20T02:15:43.527Z,0.00
2023-05-20T02:16:43.577Z,0.00
2023-05-20T02:17:43.527Z,0.00
2023-05-20T02:18:43.535Z,0.00
2023-05-20T02:19:43.513Z,0.00
2023-05-20T02:20:43.501Z,0.00
2023-05-20T02:21:43.486Z,0.00
2023-05-20T02:22:43.496Z,0.00
2023-05-20T02:23:43.485Z,0.00
2023-05-20T02:24:43.493Z,0.00
2023-05-20T02:25:43.469Z,0.00
2023-05-20T02:26:43.465Z,0.00
2023-05-20T02:27:43.462Z,0.00
2023-05-20T02:28:43.465Z,0.00
2023-05-20T02:29:43.443Z,0.00
2023-05-20T02:30:43.438Z,0.00
2023-05-20T02:31:43.433Z,0.00
2023-05-20T02:32:43.462Z,0.00
2023-05-20T02:33:43.455Z,0.00
2023-05-20T02:34:43.416Z,0.00
2023-05-20T02:35:43.424Z,0.00
2023-05-20T02:36:43.411Z,0.00
2023-05-20T02:37:43.400Z,0.00
2023-05-20T02:38:43.397Z,0.00
2023-05-20T02:39:43.383Z,0.00
2023-05-20T02:40:43.379Z,0.00
2023-05-20T02:41:43.381Z,0.00
2023-05-20T02:42:43.385Z,0.00
2023-05-20T02:43:43.353Z,0.00
2023-05-20T02:44:43.356Z,0.00
2023-05-20T02:45:43.622Z,0.00
2023-05-20T02:46:43.351Z,0.00
2023-05-20T02:47:43.371Z,0.00
2023-05-20T02:48:43.327Z,0.00
2023-05-20T02:49:43.320Z,0.00
2023-05-20T02:50:43.321Z,0.00
2023-05-20T02:51:43.304Z,0.00
2023-05-20T02:52:43.299Z,0.00
2023-05-20T02:53:43.293Z,0.00
2023-05-20T02:54:43.278Z,0.00
2023-05-20T02:55:43.273Z,0.00
2023-05-20T02:56:43.284Z,0.00
2023-05-20T02:57:43.275Z,0.00
2023-05-20T02:58:43.259Z,0.00
2023-05-20T02:59:43.259Z,0.00
2023-05-20T03:00:43.242Z,0.00
2023-05-20T03:01:43.287Z,0.00
2023-05-20T03:02:43.272Z,0.00
2023-05-20T03:03:43.221Z,0.00
2023-05-20T03:04:43.240Z,0.00
2023-05-20T03:05:43.219Z,0.00
2023-05-20T03:06:43.208Z,0.00
2023-05-20T03:07:43.202Z,0.00
2023-05-20T03:08:43.206Z,0.00
2023-05-20T03:09:43.187Z,0.00
2023-05-20T03:10:43.177Z,0.00
2023-05-20T03:11:43.169Z,0.00
2023-05-20T03:12:43.166Z,0.00
2023-05-20T03:13:43.166Z,0.00
2023-05-20T03:14:43.156Z,0.00
2023-05-20T03:15:43.165Z,0.00
2023-05-20T03:16:43.146Z,0.00
2023-05-20T03:17:43.166Z,0.00
2023-05-20T03:18:43.171Z,0.00
2023-05-20T03:19:43.188Z,0.00
2023-05-20T03:20:43.108Z,0.00
2023-05-20T03:21:43.112Z,0.00
2023-05-20T03:22:43.108Z,0.00
2023-05-20T03:23:43.093Z,0.00
2023-05-20T03:24:43.085Z,0.00
2023-05-20T03:25:43.076Z,0.00
2023-05-20T03:26:43.148Z,0.00
2023-05-20T03:27:43.071Z,0.00
2023-05-20T03:28:43.054Z,0.00
2023-05-20T03:29:43.062Z,0.00
2023-05-20T03:30:43.054Z,0.00
2023-05-20T03:31:43.055Z,0.00
2023-05-20T03:32:43.081Z,0.00
2023-05-20T03:33:43.031Z,0.00
2023-05-20T03:34:43.034Z,0.00
2023-05-20T03:35:43.010Z,0.00
2023-05-20T03:36:43.005Z,0.00
2023-05-20T03:37:42.996Z,0.00
2023-05-20T03:38:42.989Z,0.00
2023-05-20T03:39:42.980Z,0.00
2023-05-20T03:40:42.980Z,0.00
2023-05-20T03:41:42.972Z,0.00
2023-05-20T03:42:42.963Z,0.00
2023-05-20T03:43:42.955Z,0.00
2023-05-20T03:44:42.971Z,0.00
2023-05-20T03:45:42.943Z,0.00
2023-05-20T03:46:42.999Z,0.00
2023-05-20T03:47:42.982Z,0.00
2023-05-20T03:48:42.930Z,0.00
2023-05-20T03:49:42.928Z,0.00
2023-05-20T03:50:42.913Z,0.00
2023-05-20T03:51:42.899Z,0.00
2023-05-20T03:52:42.892Z,0.00
2023-05-20T03:53:42.891Z,0.00
2023-05-20T03:54:42.925Z,0.00
2023-05-20T03:55:42.878Z,0.00
2023-05-20T03:56:42.871Z,0.00
2023-05-20T03:57:42.863Z,0.00
2023-05-20T03:58:42.886Z,0.00
2023-05-20T03:59:42.853Z,0.00
2023-05-20T04:00:42.855Z,0.00
2023-05-20T04:01:42.868Z,0.00
2023-05-20T04:02:42.954Z,0.00
2023-05-20T04:03:42.940Z,0.00
2023-05-20T04:04:42.812Z,0.00
2023-05-20T04:05:42.800Z,0.00
2023-05-20T04:06:42.798Z,0.00
2023-05-20T04:07:42.814Z,0.00
2023-05-20T04:08:42.790Z,0.00
2023-05-20T04:09:42.780Z,0.00
2023-05-20T04:10:42.782Z,0.00
2023-05-20T04:11:42.767Z,0.00
2023-05-20T04:12:42.757Z,0.00
2023-05-20T04:13:42.758Z,0.00
2023-05-20T04:14:42.752Z,0.00
2023-05-20T04:15:42.752Z,0.00
2023-05-20T04:16:42.789Z,5.63
2023-05-20T04:17:42.810Z,5.63
2023-05-20T04:18:42.753Z,5.63
2023-05-20T04:19:42.713Z,5.63
2023-05-20T04:20:42.710Z,5.63
2023-05-20T04:21:42.699Z,5.63
2023-05-20T04:22:42.693Z,5.63
2023-05-20T04:23:42.681Z,5.63
2023-05-20T04:24:42.672Z,5.63
2023-05-20T04:25:42.678Z,5.63
2023-05-20T04:26:42.665Z,5.63
2023-05-20T04:27:42.654Z,5.63
2023-05-20T04:28:42.656Z,5.63
2023-05-20T04:29:42.642Z,5.63
2023-05-20T04:30:42.632Z,5.63
2023-05-20T04:31:42.696Z,5.63
2023-05-20T04:32:42.645Z,5.63
2023-05-20T04:33:42.608Z,5.63
2023-05-20T04:34:42.614Z,5.63
2023-05-20T04:35:42.596Z,11.25
2023-05-20T04:36:42.595Z,11.25
2023-05-20T04:37:42.745Z,11.25
2023-05-20T04:38:42.598Z,11.25
2023-05-20T04:39:42.566Z,11.25
2023-05-20T04:40:42.559Z,11.25
2023-05-20T04:41:42.556Z,11.25
2023-05-20T04:42:42.557Z,11.25
2023-05-20T04:43:42.601Z,11.25
2023-05-20T04:44:42.567Z,11.25
2023-05-20T04:45:42.551Z,11.25
2023-05-20T04:46:42.524Z,11.25
2023-05-20T04:47:42.528Z,11.25
2023-05-20T04:48:42.507Z,11.25
2023-05-20T04:49:42.518Z,11.25
2023-05-20T04:50:42.495Z,11.25
2023-05-20T04:51:42.495Z,11.25
2023-05-20T04:52:42.487Z,11.25
2023-05-20T04:53:44.154Z,11.25
2023-05-20T04:54:42.465Z,11.25
2023-05-20T04:55:42.462Z,11.25
2023-05-20T04:56:42.460Z,11.25
2023-05-20T04:57:42.882Z,11.25
2023-05-20T04:58:42.453Z,11.25
2023-05-20T04:59:42.436Z,11.25
2023-05-20T05:00:42.429Z,11.25
2023-05-20T05:01:42.444Z,11.25
2023-05-20T05:02:42.503Z,11.25
2023-05-20T05:03:42.422Z,11.25
2023-05-20T05:04:42.445Z,11.25
2023-05-20T05:05:42.417Z,11.25
2023-05-20T05:06:42.394Z,11.25
2023-05-20T05:07:42.393Z,11.25
2023-05-20T05:08:42.378Z,11.25
2023-05-20T05:09:42.374Z,11.25
2023-05-20T05:10:42.362Z,11.25
2023-05-20T05:11:42.361Z,11.25
2023-05-20T05:12:42.354Z,11.25
2023-05-20T05:13:42.373Z,11.25
2023-05-20T05:14:42.410Z,11.25
2023-05-20T05:15:42.387Z,11.25
2023-05-20T05:16:42.331Z,11.25
2023-05-20T05:17:42.378Z,11.25
2023-05-20T05:18:42.342Z,11.25
2023-05-20T05:19:42.308Z,11.25
2023-05-20T05:20:42.388Z,11.25
2023-05-20T05:21:42.295Z,16.88
2023-05-20T05:22:42.288Z,11.25
2023-05-20T05:23:42.272Z,11.25
2023-05-20T05:24:42.272Z,16.88
2023-05-20T05:25:42.273Z,16.88
2023-05-20T05:26:42.286Z,16.88
2023-05-20T05:27:42.266Z,16.88
2023-05-20T05:28:42.270Z,16.88
2023-05-20T05:29:42.248Z,16.88
2023-05-20T05:30:42.239Z,16.88
2023-05-20T05:31:42.237Z,16.88
2023-05-20T05:32:42.399Z,16.88
2023-05-20T05:33:42.229Z,16.88
2023-05-20T05:34:42.228Z,16.88
2023-05-20T05:35:42.204Z,16.88
2023-05-20T05:36:42.195Z,16.88
2023-05-20T05:37:42.194Z,16.88
2023-05-20T05:38:42.191Z,16.88
2023-05-20T05:39:42.192Z,16.88
2023-05-20T05:40:42.181Z,22.50
2023-05-20T05:41:42.168Z,22.50
2023-05-20T05:42:42.161Z,22.50
2023-05-20T05:43:42.145Z,22.50
2023-05-20T05:44:42.151Z,28.13
2023-05-20T05:45:42.149Z,28.13
2023-05-20T05:46:42.203Z,28.13
2023-05-20T05:47:42.138Z,28.13
2023-05-20T05:48:42.119Z,33.75
2023-05-20T05:49:42.118Z,33.75
2023-05-20T05:50:42.108Z,33.75
2023-05-20T05:51:42.114Z,33.75
2023-05-20T05:52:42.094Z,33.75
2023-05-20T05:53:42.088Z,33.75
2023-05-20T05:54:42.092Z,33.75
2023-05-20T05:55:42.081Z,33.75
2023-05-20T05:56:42.070Z,33.75
2023-05-20T05:57:42.071Z,33.75
2023-05-20T05:58:42.062Z,33.75
2023-05-20T05:59:42.053Z,39.38
2023-05-20T06:00:42.084Z,39.38
2023-05-20T06:01:42.053Z,39.38
2023-05-20T06:02:42.142Z,39.38
2023-05-20T06:03:42.181Z,39.38
2023-05-20T06:04:42.029Z,39.38
2023-05-20T06:05:42.009Z,39.38
2023-05-20T06:06:42.007Z,39.38
2023-05-20T06:07:42.014Z,39.38
2023-05-20T06:08:42.004Z,39.38
2023-05-20T06:09:41.996Z,39.38
2023-05-20T06:10:41.985Z,33.75
2023-05-20T06:11:41.983Z,33.75
2023-05-20T06:12:41.984Z,33.75
2023-05-20T06:13:41.976Z,39.38
2023-05-20T06:14:41.971Z,33.75
2023-05-20T06:15:41.956Z,33.75
2023-05-20T06:16:41.982Z,28.13
2023-05-20T06:17:41.956Z,28.13
2023-05-20T06:18:41.970Z,33.75
2023-05-20T06:19:41.954Z,33.75
2023-05-20T06:20:41.948Z,28.13
2023-05-20T06:21:41.973Z,28.13
2023-05-20T06:22:41.933Z,28.13
2023-05-20T06:23:41.914Z,28.13
2023-05-20T06:24:41.913Z,28.13
2023-05-20T06:25:41.908Z,28.13
2023-05-20T06:26:41.902Z,33.75
2023-05-20T06:27:41.906Z,33.75
2023-05-20T06:28:41.888Z,33.75
2023-05-20T06:29:43.099Z,39.38
2023-05-20T06:30:41.912Z,39.38
2023-05-20T06:31:41.876Z,45.00
2023-05-20T06:32:41.879Z,45.00
2023-05-20T06:33:41.856Z,45.00
2023-05-20T06:34:41.879Z,50.63
2023-05-20T06:35:41.861Z,50.63
2023-05-20T06:36:41.844Z,50.63
2023-05-20T06:37:41.890Z,50.63
2023-05-20T06:38:41.832Z,50.63
2023-05-20T06:39:41.845Z,50.63
2023-05-20T06:40:41.826Z,50.63
2023-05-20T06:41:41.818Z,56.25
2023-05-20T06:42:41.817Z,56.25
2023-05-20T06:43:41.806Z,56.25
2023-05-20T06:44:41.797Z,56.25
2023-05-20T06:45:41.796Z,56.25
2023-05-20T06:46:41.865Z,56.25
2023-05-20T06:47:41.827Z,56.25
2023-05-20T06:48:41.774Z,56.25
2023-05-20T06:49:41.777Z,56.25
2023-05-20T06:50:41.768Z,56.25
2023-05-20T06:51:41.764Z,56.25
2023-05-20T06:52:41.758Z,56.25
2023-05-20T06:53:41.758Z,56.25
2023-05-20T06:54:41.928Z,56.25
2023-05-20T06:55:41.763Z,56.25
2023-05-20T06:56:41.747Z,56.25
2023-05-20T06:57:41.729Z,56.25
2023-05-20T06:58:41.724Z,56.25
2023-05-20T06:59:41.722Z,56.25
2023-05-20T07:00:41.719Z,56.25
2023-05-20T07:01:41.762Z,61.88
2023-05-20T07:02:41.754Z,61.88
2023-05-20T07:03:41.775Z,61.88
2023-05-20T07:04:41.696Z,61.88
2023-05-20T07:05:41.696Z,67.50
2023-05-20T07:06:41.696Z,67.50
2023-05-20T07:07:41.689Z,61.88
2023-05-20T07:08:41.676Z,56.25
2023-05-20T07:09:41.670Z,56.25
2023-05-20T07:10:41.669Z,56.25
2023-05-20T07:11:41.672Z,56.25
2023-05-20T07:12:41.671Z,56.25
2023-05-20T07:13:41.658Z,56.25
2023-05-20T07:14:41.658Z,56.25
2023-05-20T07:15:41.692Z,56.25
2023-05-20T07:16:41.767Z,56.25
2023-05-20T07:17:41.701Z,50.63
2023-05-20T07:18:41.704Z,50.63
2023-05-20T07:19:41.633Z,56.25
2023-05-20T07:20:41.619Z,56.25
2023-05-20T07:21:41.626Z,56.25
2023-05-20T07:22:41.630Z,61.88
2023-05-20T07:23:41.614Z,61.88
2023-05-20T07:24:41.605Z,67.50
2023-05-20T07:25:41.597Z,73.13
2023-05-20T07:26:41.589Z,73.13
2023-05-20T07:27:41.604Z,73.13
2023-05-20T07:28:41.612Z,73.13
2023-05-20T07:29:41.576Z,73.13
2023-05-20T07:30:41.570Z,67.50
2023-05-20T07:31:41.624Z,67.50
2023-05-20T07:32:41.611Z,67.50
2023-05-20T07:33:41.563Z,67.50
2023-05-20T07:34:41.557Z,67.50
2023-05-20T07:35:41.544Z,73.13
2023-05-20T07:36:41.542Z,78.75
2023-05-20T07:37:41.564Z,78.75
2023-05-20T07:38:47.211Z,84.38
2023-05-20T07:39:41.543Z,84.38
2023-05-20T07:40:41.550Z,84.38
2023-05-20T07:41:41.533Z,90.00
2023-05-20T07:42:41.524Z,90.00
2023-05-20T07:43:41.529Z,90.00
2023-05-20T07:44:41.531Z,90.00
2023-05-20T07:45:41.545Z,90.00
2023-05-20T07:46:41.596Z,90.00
2023-05-20T07:47:41.557Z,90.00
2023-05-20T07:48:41.510Z,90.00
2023-05-20T07:49:41.517Z,84.38
2023-05-20T07:50:41.504Z,84.38
2023-05-20T07:51:41.489Z,90.00
2023-05-20T07:52:55.029Z,95.63
2023-05-20T07:53:41.484Z,95.63
2023-05-20T07:54:41.479Z,95.63
2023-05-20T07:55:41.476Z,95.63
2023-05-20T07:56:41.474Z,95.63
2023-05-20T07:57:42.992Z,90.00
2023-05-20T07:58:41.454Z,84.38
2023-05-20T07:59:41.489Z,90.00
2023-05-20T08:00:41.454Z,90.00
2023-05-20T08:01:41.463Z,84.38
2023-05-20T08:02:41.549Z,84.38
2023-05-20T08:03:41.557Z,84.38
2023-05-20T08:04:41.481Z,90.00
2023-05-20T08:05:41.435Z,90.00
2023-05-20T08:06:41.436Z,95.63
2023-05-20T08:07:41.422Z,95.63
2023-05-20T08:08:41.414Z,95.63
2023-05-20T08:09:41.412Z,101.25
2023-05-20T08:10:41.411Z,101.25
2023-05-20T08:11:41.405Z,101.25
2023-05-20T08:12:41.400Z,101.25
2023-05-20T08:13:41.398Z,101.25
2023-05-20T08:14:41.417Z,95.63
2023-05-20T08:15:41.393Z,106.88
2023-05-20T08:16:41.457Z,101.25
2023-05-20T08:17:41.407Z,101.25
2023-05-20T08:18:41.380Z,101.25
2023-05-20T08:19:41.372Z,101.25
2023-05-20T08:20:41.367Z,106.88
2023-05-20T08:21:41.363Z,106.88
2023-05-20T08:22:41.360Z,106.88
2023-05-20T08:23:41.399Z,112.50
2023-05-20T08:24:41.353Z,112.50
2023-05-20T08:25:41.346Z,106.88
2023-05-20T08:26:41.348Z,106.88
2023-05-20T08:27:41.347Z,106.88
2023-05-20T08:28:41.339Z,106.88
2023-05-20T08:29:41.345Z,106.88
2023-05-20T08:30:41.396Z,112.50
2023-05-20T08:31:41.360Z,118.13
2023-05-20T08:32:41.394Z,112.50
2023-05-20T08:33:41.319Z,106.88
2023-05-20T08:34:41.314Z,112.50
2023-05-20T08:35:41.323Z,106.88
2023-05-20T08:36:41.306Z,106.88
2023-05-20T08:37:41.311Z,106.88
2023-05-20T08:38:41.317Z,106.88
2023-05-20T08:39:41.295Z,112.50
2023-05-20T08:40:41.301Z,112.50
2023-05-20T08:41:41.303Z,112.50
2023-05-20T08:42:41.293Z,118.13
2023-05-20T08:43:41.284Z,112.50
2023-05-20T08:44:41.294Z,118.13
2023-05-20T08:45:41.293Z,118.13
2023-05-20T08:46:41.335Z,118.13
2023-05-20T08:47:41.295Z,118.13
2023-05-20T08:48:41.279Z,123.75
2023-05-20T08:49:41.268Z,118.13
2023-05-20T08:50:41.280Z,118.13
2023-05-20T08:51:41.259Z,118.13
2023-05-20T08:52:41.250Z,118.13
2023-05-20T08:53:41.260Z,118.13
2023-05-20T08:54:41.262Z,123.75
2023-05-20T08:55:41.247Z,129.38
2023-05-20T08:56:41.249Z,118.13
2023-05-20T08:57:41.249Z,118.13
2023-05-20T08:58:41.231Z,118.13
2023-05-20T08:59:41.340Z,112.50
2023-05-20T09:00:41.229Z,118.13
2023-05-20T09:01:41.289Z,123.75
2023-05-20T09:02:41.286Z,135.00
2023-05-20T09:03:41.241Z,118.13
2023-05-20T09:04:41.252Z,135.00
2023-05-20T09:05:41.220Z,140.63
2023-05-20T09:06:41.227Z,129.38
2023-05-20T09:07:41.234Z,123.75
2023-05-20T09:08:41.215Z,123.75
2023-05-20T09:09:41.234Z,123.75
2023-05-20T09:10:41.236Z,118.13
2023-05-20T09:11:41.204Z,118.13
2023-05-20T09:12:41.215Z,129.38
2023-05-20T09:13:41.195Z,118.13
2023-05-20T09:14:41.197Z,123.75
2023-05-20T09:15:41.194Z,146.25
2023-05-20T09:16:41.455Z,135.00
2023-05-20T09:17:41.249Z,140.63
2023-05-20T09:18:41.263Z,129.38
2023-05-20T09:19:41.186Z,135.00
2023-05-20T09:20:41.187Z,140.63
2023-05-20T09:21:41.178Z,140.63
2023-05-20T09:22:41.174Z,135.00
2023-05-20T09:23:41.174Z,146.25
2023-05-20T09:24:41.173Z,140.63
2023-05-20T09:25:41.163Z,140.63
2023-05-20T09:26:41.161Z,140.63
2023-05-20T09:27:41.164Z,129.38
2023-05-20T09:28:41.173Z,151.88
2023-05-20T09:29:41.163Z,168.75
2023-05-20T09:30:41.246Z,140.63
2023-05-20T09:31:41.181Z,146.25
2023-05-20T09:32:41.202Z,140.63
2023-05-20T09:33:41.152Z,140.63
2023-05-20T09:34:41.150Z,140.63
2023-05-20T09:35:41.144Z,146.25
2023-05-20T09:36:41.147Z,140.63
2023-05-20T09:37:41.140Z,140.63
2023-05-20T09:38:41.137Z,151.88
2023-05-20T09:39:41.163Z,151.88
2023-05-20T09:40:41.176Z,151.88
2023-05-20T09:41:41.128Z,140.63
2023-05-20T09:42:41.131Z,135.00
2023-05-20T09:43:41.132Z,129.38
2023-05-20T09:44:41.139Z,129.38
2023-05-20T09:45:41.160Z,123.75
2023-05-20T09:46:41.161Z,123.75
2023-05-20T09:47:41.289Z,129.38
2023-05-20T09:48:41.114Z,118.13
2023-05-20T09:49:41.109Z,118.13
2023-05-20T09:50:41.140Z,112.50
2023-05-20T09:51:41.108Z,118.13
2023-05-20T09:52:41.107Z,112.50
2023-05-20T09:53:41.097Z,101.25
2023-05-20T09:54:41.107Z,95.63
2023-05-20T09:55:41.099Z,95.63
2023-05-20T09:56:41.115Z,90.00
2023-05-20T09:57:41.100Z,90.00
2023-05-20T09:58:41.097Z,90.00
2023-05-20T09:59:41.089Z,84.38
2023-05-20T10:00:41.097Z,84.38
2023-05-20T10:01:41.127Z,84.38
2023-05-20T10:02:41.111Z,84.38
2023-05-20T10:03:42.628Z,90.00
2023-05-20T10:04:41.091Z,90.00
2023-05-20T10:05:41.078Z,90.00
2023-05-20T10:06:41.085Z,90.00
2023-05-20T10:07:42.118Z,95.63
2023-05-20T10:08:41.069Z,95.63
2023-05-20T10:09:41.058Z,95.63
2023-05-20T10:10:41.065Z,90.00
2023-05-20T10:11:41.063Z,90.00
2023-05-20T10:12:41.069Z,84.38
2023-05-20T10:13:41.060Z,84.38
2023-05-20T10:14:42.145Z,84.38
2023-05-20T10:15:41.118Z,84.38
2023-05-20T10:16:41.042Z,84.38
2023-05-20T10:17:41.083Z,84.38
2023-05-20T10:18:41.080Z,90.00
2023-05-20T10:19:41.047Z,90.00
2023-05-20T10:20:41.042Z,95.63
2023-05-20T10:21:41.030Z,95.63
2023-05-20T10:22:41.043Z,95.63
2023-05-20T10:23:41.032Z,95.63
2023-05-20T10:24:41.330Z,101.25
2023-05-20T10:25:41.023Z,101.25
2023-05-20T10:26:41.040Z,101.25
2023-05-20T10:27:41.010Z,118.13
2023-05-20T10:28:41.019Z,123.75
2023-05-20T10:29:41.006Z,123.75
2023-05-20T10:30:43.628Z,129.38
2023-05-20T10:31:41.003Z,135.00
2023-05-20T10:32:41.046Z,151.88
2023-05-20T10:33:41.066Z,151.88
2023-05-20T10:34:40.984Z,157.50
2023-05-20T10:35:40.983Z,185.63
2023-05-20T10:36:42.698Z,157.50
2023-05-20T10:37:40.973Z,208.13
2023-05-20T10:38:40.979Z,191.25
2023-05-20T10:39:40.976Z,286.88
2023-05-20T10:40:41.018Z,275.63
2023-05-20T10:41:40.976Z,275.63
2023-05-20T10:42:40.961Z,281.25
2023-05-20T10:43:40.963Z,281.25
2023-05-20T10:44:40.958Z,286.88
2023-05-20T10:45:40.968Z,286.88
2023-05-20T10:46:57.172Z,286.88
2023-05-20T10:47:41.102Z,292.50
2023-05-20T10:48:41.038Z,298.13
2023-05-20T10:49:40.965Z,292.50
2023-05-20T10:50:40.963Z,292.50
2023-05-20T10:51:40.959Z,292.50
2023-05-20T10:52:40.954Z,315.00
2023-05-20T10:53:40.967Z,309.38
2023-05-20T10:54:40.958Z,320.63
2023-05-20T10:55:40.961Z,264.38
2023-05-20T10:56:40.953Z,348.75
2023-05-20T10:57:40.947Z,365.63
2023-05-20T10:58:40.953Z,388.13
2023-05-20T10:59:40.956Z,393.75
2023-05-20T11:00:40.978Z,129.38
2023-05-20T11:01:41.033Z,303.75
2023-05-20T11:02:41.037Z,258.75
2023-05-20T11:03:41.057Z,438.75
2023-05-20T11:04:40.961Z,163.13
2023-05-20T11:05:40.971Z,157.50
2023-05-20T11:06:40.966Z,202.50
2023-05-20T11:07:40.961Z,202.50
2023-05-20T11:08:40.967Z,174.38
2023-05-20T11:09:40.969Z,61.88
2023-05-20T11:10:40.970Z,67.50
2023-05-20T11:11:40.962Z,90.00
2023-05-20T11:12:40.996Z,78.75
2023-05-20T11:13:40.966Z,95.63
2023-05-20T11:14:40.978Z,90.00
2023-05-20T11:15:40.983Z,90.00
2023-05-20T11:16:41.000Z,90.00
2023-05-20T11:17:41.002Z,84.38
2023-05-20T11:18:41.010Z,78.75
2023-05-20T11:19:40.971Z,90.00
2023-05-20T11:20:40.977Z,106.88
2023-05-20T11:21:40.966Z,90.00
2023-05-20T11:22:40.964Z,73.13
2023-05-20T11:23:40.987Z,95.63
2023-05-20T11:24:40.963Z,106.88
2023-05-20T11:25:40.971Z,106.88
2023-05-20T11:26:40.968Z,106.88
2023-05-20T11:27:40.976Z,90.00
2023-05-20T11:28:40.959Z,90.00
2023-05-20T11:29:40.959Z,95.63
2023-05-20T11:30:40.948Z,78.75
2023-05-20T11:31:40.969Z,84.38
2023-05-20T11:32:40.989Z,84.38
2023-05-20T11:33:40.945Z,78.75
2023-05-20T11:34:40.958Z,78.75
2023-05-20T11:35:40.949Z,78.75
2023-05-20T11:36:40.949Z,78.75
2023-05-20T11:37:40.942Z,84.38
2023-05-20T11:38:40.941Z,90.00
2023-05-20T11:39:40.942Z,84.38
2023-05-20T11:40:49.888Z,73.13
2023-05-20T11:41:40.945Z,73.13
2023-05-20T11:42:40.933Z,78.75
2023-05-20T11:43:40.923Z,84.38
2023-05-20T11:44:40.925Z,90.00
2023-05-20T11:45:40.923Z,84.38
2023-05-20T11:46:40.996Z,78.75
2023-05-20T11:47:40.935Z,84.38
2023-05-20T11:48:40.928Z,78.75
2023-05-20T11:49:40.914Z,67.50
2023-05-20T11:50:40.914Z,78.75
2023-05-20T11:51:40.908Z,78.75
2023-05-20T11:52:40.909Z,84.38
2023-05-20T11:53:40.927Z,90.00
2023-05-20T11:54:40.904Z,84.38
2023-05-20T11:55:40.904Z,90.00
2023-05-20T11:56:40.892Z,90.00
2023-05-20T11:57:40.894Z,95.63
2023-05-20T11:58:40.894Z,95.63
2023-05-20T11:59:40.904Z,95.63
2023-05-20T12:00:51.192Z,101.25
2023-05-20T12:01:40.915Z,101.25
2023-05-20T12:02:40.974Z,95.63
2023-05-20T12:03:40.982Z,84.38
2023-05-20T12:04:40.898Z,78.75
2023-05-20T12:05:40.890Z,73.13
2023-05-20T12:06:40.872Z,67.50
2023-05-20T12:07:40.879Z,56.25
2023-05-20T12:08:40.901Z,56.25
2023-05-20T12:09:40.868Z,61.88
2023-05-20T12:10:40.862Z,61.88
2023-05-20T12:11:40.873Z,73.13
2023-05-20T12:12:40.861Z,73.13
2023-05-20T12:13:40.855Z,78.75
2023-05-20T12:14:40.858Z,84.38
2023-05-20T12:15:40.876Z,95.63
2023-05-20T12:16:40.898Z,90.00
2023-05-20T12:17:40.879Z,84.38
2023-05-20T12:18:40.899Z,90.00
2023-05-20T12:19:42.179Z,84.38
2023-05-20T12:20:40.857Z,95.63
2023-05-20T12:21:40.830Z,90.00
2023-05-20T12:22:40.834Z,95.63
2023-05-20T12:23:40.828Z,78.75
2023-05-20T12:24:40.827Z,73.13
2023-05-20T12:25:40.824Z,61.88
2023-05-20T12:26:40.820Z,61.88
2023-05-20T12:27:40.820Z,67.50
2023-05-20T12:28:40.811Z,73.13
2023-05-20T12:29:40.822Z,73.13
2023-05-20T12:30:40.806Z,61.88
2023-05-20T12:31:40.827Z,56.25
2023-05-20T12:32:40.825Z,56.25
2023-05-20T12:33:40.797Z,67.50
2023-05-20T12:34:40.792Z,73.13
2023-05-20T12:35:40.832Z,61.88
2023-05-20T12:36:40.789Z,56.25
2023-05-20T12:37:40.785Z,50.63
2023-05-20T12:38:40.780Z,45.00
2023-05-20T12:39:40.795Z,45.00
2023-05-20T12:40:40.779Z,56.25
2023-05-20T12:41:40.778Z,67.50
2023-05-20T12:42:40.784Z,61.88
2023-05-20T12:43:40.769Z,73.13
2023-05-20T12:44:40.768Z,78.75
2023-05-20T12:45:40.761Z,84.38
2023-05-20T12:46:40.802Z,84.38
2023-05-20T12:47:40.791Z,84.38
2023-05-20T12:48:42.574Z,78.75
2023-05-20T12:49:40.767Z,67.50
2023-05-20T12:50:40.749Z,67.50
2023-05-20T12:51:40.771Z,73.13
2023-05-20T12:52:40.754Z,67.50
2023-05-20T12:53:40.736Z,67.50
2023-05-20T12:54:40.748Z,67.50
2023-05-20T12:55:40.754Z,61.88
2023-05-20T12:56:40.741Z,67.50